This is the latest recevied weather packets stored in our database for station/object VU3OPZ-13. If no packets are shown the sender has not sent any weather packets the latest 10 day(s).
| Time | Temp. | Humidity | Pressure | Rain* | Wind** | Luminosity | Snow |
|---|---|---|---|---|---|---|---|
| 1788086184 | 26.67° C | 62% | 1009 hPa | 0 mm | - | - | - |
| 1788084379 | 27.22° C | 61% | 1009 hPa | 0 mm | - | - | - |
| 1788082575 | 27.22° C | 61% | 1009 hPa | 0 mm | - | - | - |
| 1788080771 | 27.78° C | 60% | 1010 hPa | 0 mm | - | - | - |
| 1788078966 | 27.78° C | 59% | 1010 hPa | 0 mm | - | - | - |
| 1788077162 | 27.78° C | 60% | 1010 hPa | 0 mm | - | - | - |
| 1788075357 | 27.78° C | 60% | 1010 hPa | 0 mm | - | - | - |
| 1788073553 | 27.78° C | 60% | 1011 hPa | 0 mm | - | - | - |
| 1788071749 | 27.78° C | 60% | 1011 hPa | 0 mm | - | - | - |
| 1788069944 | 27.22° C | 63% | 1012 hPa | 0 mm | - | - | - |
| 1788068140 | 27.22° C | 63% | 1011 hPa | 0 mm | - | - | - |
| 1788066336 | 26.11° C | 68% | 1012 hPa | 0 mm | - | - | - |
| 1788064531 | 26.11° C | 67% | 1012 hPa | 0 mm | - | - | - |
| 1788062727 | 24.44° C | 74% | 1012 hPa | 0 mm | - | - | - |
| 1788060923 | 24.44° C | 73% | 1012 hPa | 0 mm | - | - | - |
| 1788059118 | 23.33° C | 79% | 1012 hPa | 0 mm | - | - | - |
| 1788057314 | 23.33° C | 79% | 1012 hPa | 0 mm | - | - | - |
| 1788055520 | 22.22° C | 83% | 1011 hPa | 0 mm | - | - | - |
| 1788053706 | 22.22° C | 83% | 1011 hPa | 0 mm | - | - | - |
| 1788051902 | 21.11° C | 89% | 1010 hPa | 0 mm | - | - | - |
| 1788050098 | 21.11° C | 89% | 1010 hPa | 0 mm | - | - | - |
| 1788048293 | 21.67° C | 86% | 1010 hPa | 0 mm | - | - | - |
| 1788046489 | 21.67° C | 86% | 1010 hPa | 0 mm | - | - | - |
| 1788044684 | 21.67° C | 86% | 1009 hPa | 0 mm | - | - | - |
| 1788042880 | 21.67° C | 86% | 1009 hPa | 0 mm | - | - | - |
* Rain latest hour (hover to see other rain measurements)
** Current wind speed in m/s (hover to see current wind gust speed)